createdAt,value
2022-08-28T00:03:14.121Z,24.56
2022-08-28T00:08:18.514Z,24.48
2022-08-28T00:13:22.782Z,24.55
2022-08-28T00:18:27.125Z,24.44
2022-08-28T00:23:38.782Z,24.22
2022-08-28T00:28:45.446Z,24.44
2022-08-28T00:33:48.329Z,24.37
2022-08-28T00:38:51.070Z,24.41
2022-08-28T00:44:25.465Z,24.13
2022-08-28T00:49:31.633Z,24.09
2022-08-28T00:54:37.868Z,24.10
2022-08-28T00:59:40.293Z,23.85
2022-08-28T01:04:43.420Z,23.92
2022-08-28T01:09:49.830Z,23.65
2022-08-28T01:14:55.597Z,23.89
2022-08-28T01:20:03.859Z,23.93
2022-08-28T01:25:13.832Z,23.87
2022-08-28T01:30:20.348Z,23.66
2022-08-28T01:35:27.709Z,23.67
2022-08-28T01:40:37.303Z,23.60
2022-08-28T01:45:44.778Z,23.48
2022-08-28T01:50:47.445Z,23.63
2022-08-28T01:55:51.263Z,23.60
2022-08-28T02:00:54.289Z,23.63
2022-08-28T02:05:56.734Z,23.52
2022-08-28T02:10:59.681Z,23.43
2022-08-28T02:16:02.214Z,23.30
2022-08-28T02:21:05.881Z,23.35
2022-08-28T02:26:09.589Z,23.47
2022-08-28T02:31:12.191Z,23.41
2022-08-28T02:36:16.754Z,23.32
2022-08-28T02:41:19.485Z,23.15
2022-08-28T02:46:21.909Z,23.19
2022-08-28T02:51:24.387Z,23.12
2022-08-28T02:56:26.882Z,22.79
2022-08-28T03:01:29.375Z,22.76
2022-08-28T03:06:33.084Z,22.65
2022-08-28T03:11:35.493Z,22.67
2022-08-28T03:16:37.923Z,22.77
2022-08-28T03:21:40.480Z,22.66
2022-08-28T03:26:42.877Z,22.69
2022-08-28T03:31:45.414Z,22.59
2022-08-28T03:36:47.872Z,22.71
2022-08-28T03:41:50.220Z,22.62
2022-08-28T03:46:53.042Z,22.60
2022-08-28T03:51:55.658Z,22.58
2022-08-28T03:56:58.514Z,22.73
2022-08-28T04:02:01.031Z,22.69
2022-08-28T04:07:03.383Z,22.61
2022-08-28T04:12:05.994Z,22.67
2022-08-28T04:17:08.798Z,22.66
2022-08-28T04:22:11.646Z,22.71
2022-08-28T04:27:17.917Z,22.53
2022-08-28T04:32:20.624Z,22.69
2022-08-28T04:37:23.507Z,22.82
2022-08-28T04:42:30.501Z,22.85
2022-08-28T04:47:39.337Z,22.83
2022-08-28T04:52:43.780Z,22.79
2022-08-28T04:57:46.260Z,22.92
2022-08-28T05:02:48.725Z,22.72
2022-08-28T05:07:51.291Z,22.96
2022-08-28T05:12:53.619Z,23.09
2022-08-28T05:17:56.176Z,23.27
2022-08-28T05:22:58.608Z,23.23
2022-08-28T05:28:01.214Z,23.35
2022-08-28T05:33:05.098Z,23.65
2022-08-28T05:38:08.747Z,23.74
2022-08-28T05:43:12.829Z,23.84
2022-08-28T05:48:16.736Z,23.71
2022-08-28T05:53:19.186Z,24.06
2022-08-28T05:58:30.398Z,24.16
2022-08-28T06:03:33.089Z,24.42
2022-08-28T06:08:36.779Z,24.52
2022-08-28T06:13:39.708Z,24.50
2022-08-28T06:18:42.576Z,24.62
2022-08-28T06:23:45.391Z,24.83
2022-08-28T06:28:53.090Z,24.82
2022-08-28T06:33:59.424Z,24.89
2022-08-28T06:39:04.623Z,24.89
2022-08-28T06:44:08.029Z,25.23
2022-08-28T06:49:12.935Z,25.29
2022-08-28T06:54:22.652Z,25.55
2022-08-28T06:59:26.004Z,25.37
2022-08-28T07:04:28.661Z,25.67
2022-08-28T07:09:31.160Z,25.64
2022-08-28T07:14:33.760Z,25.64
2022-08-28T07:19:36.568Z,25.71
2022-08-28T07:24:39.209Z,25.97
2022-08-28T07:29:41.974Z,26.25
2022-08-28T07:34:44.378Z,26.41
2022-08-28T07:39:47.371Z,26.54
2022-08-28T07:44:50.511Z,26.47
2022-08-28T07:49:54.062Z,26.68
2022-08-28T07:54:57.402Z,26.84
2022-08-28T08:00:00.139Z,26.99
2022-08-28T08:05:02.573Z,27.12
2022-08-28T08:10:05.408Z,27.17
2022-08-28T08:15:08.223Z,27.17
2022-08-28T08:20:11.350Z,27.40
2022-08-28T08:25:13.988Z,27.60
2022-08-28T08:30:16.586Z,27.54
2022-08-28T08:35:19.117Z,27.82
2022-08-28T08:40:22.462Z,28.00
2022-08-28T08:45:29.500Z,28.27
2022-08-28T08:50:36.340Z,28.06
2022-08-28T08:55:53.856Z,28.33
2022-08-28T09:01:02.397Z,28.54
2022-08-28T09:06:13.634Z,28.48
2022-08-28T09:11:33.871Z,28.90
2022-08-28T09:21:57.475Z,28.76
2022-08-28T09:33:01.726Z,28.92
2022-08-28T09:38:27.575Z,29.53
2022-08-28T09:43:32.054Z,29.78
2022-08-28T09:48:44.075Z,30.04
2022-08-28T09:53:52.539Z,30.34
2022-08-28T09:59:09.139Z,30.26
2022-08-28T10:04:38.430Z,30.46
2022-08-28T10:10:07.643Z,30.73
2022-08-28T10:15:21.938Z,30.87
2022-08-28T10:20:45.559Z,30.96
2022-08-28T10:26:10.885Z,30.57
2022-08-28T10:31:37.998Z,30.93
2022-08-28T10:36:42.259Z,30.91
2022-08-28T10:41:49.836Z,31.11
2022-08-28T10:46:56.542Z,31.02
2022-08-28T10:52:28.957Z,31.09
2022-08-28T10:57:42.320Z,31.22
2022-08-28T11:02:49.087Z,31.40
2022-08-28T11:08:01.505Z,31.70
2022-08-28T11:13:07.665Z,31.83
2022-08-28T11:18:39.312Z,31.86
2022-08-28T11:23:53.223Z,32.23
2022-08-28T11:28:55.686Z,32.34
2022-08-28T11:34:00.631Z,32.14
2022-08-28T11:39:14.579Z,32.33
2022-08-28T11:44:28.799Z,32.29
2022-08-28T11:49:34.457Z,32.79
2022-08-28T11:54:51.803Z,32.81
2022-08-28T12:00:05.926Z,32.81
2022-08-28T12:05:24.586Z,32.50
2022-08-28T12:10:27.644Z,32.93
2022-08-28T12:15:30.348Z,32.71
2022-08-28T12:20:51.483Z,32.99
2022-08-28T12:26:42.665Z,33.19
2022-08-28T12:32:15.714Z,33.22
2022-08-28T12:37:52.580Z,33.09
2022-08-28T12:43:02.914Z,32.90
2022-08-28T12:48:29.936Z,32.75
2022-08-28T12:53:56.067Z,33.08
2022-08-28T12:59:27.426Z,33.13
2022-08-28T13:04:42.754Z,33.31
2022-08-28T13:09:52.352Z,33.40
2022-08-28T13:14:54.804Z,33.43
2022-08-28T13:20:07.747Z,33.81
2022-08-28T13:25:20.849Z,34.26
2022-08-28T13:30:28.061Z,34.44
2022-08-28T13:35:35.320Z,34.41
2022-08-28T13:41:00.514Z,34.86
2022-08-28T13:46:03.180Z,34.92
2022-08-28T13:51:10.522Z,35.05
2022-08-28T13:56:13.955Z,34.94
2022-08-28T14:01:22.508Z,34.50
2022-08-28T14:06:33.226Z,34.57
2022-08-28T14:11:36.686Z,34.44
2022-08-28T14:16:40.655Z,34.28
2022-08-28T14:21:43.277Z,33.80
2022-08-28T14:26:46.142Z,33.49
2022-08-28T14:31:48.866Z,33.34
2022-08-28T14:36:55.626Z,33.31
2022-08-28T14:41:58.909Z,33.01
2022-08-28T14:47:01.406Z,32.86
2022-08-28T14:52:05.183Z,32.70
2022-08-28T14:57:07.709Z,32.53
2022-08-28T15:02:10.153Z,32.39
2022-08-28T15:07:13.478Z,32.41
2022-08-28T15:12:16.709Z,32.39
2022-08-28T15:17:19.232Z,32.68
2022-08-28T15:22:27.336Z,32.78
2022-08-28T15:27:30.022Z,32.34
2022-08-28T15:32:32.848Z,32.49
2022-08-28T15:37:35.203Z,32.19
2022-08-28T15:42:37.718Z,32.16
2022-08-28T15:47:40.083Z,31.92
2022-08-28T15:52:42.561Z,32.04
2022-08-28T15:57:45.741Z,31.85
2022-08-28T16:02:48.110Z,31.67
2022-08-28T16:07:50.710Z,31.73
2022-08-28T16:12:57.459Z,31.73
2022-08-28T16:18:00.256Z,31.49
2022-08-28T16:23:03.588Z,31.39
2022-08-28T16:28:08.955Z,31.12
2022-08-28T16:33:11.775Z,30.98
2022-08-28T16:38:15.793Z,30.73
2022-08-28T16:43:18.250Z,30.52
2022-08-28T16:48:20.666Z,30.44
2022-08-28T16:53:24.946Z,30.36
2022-08-28T16:58:29.886Z,30.27
2022-08-28T17:03:32.733Z,30.12
2022-08-28T17:08:35.107Z,30.18
2022-08-28T17:13:38.528Z,29.98
2022-08-28T17:18:47.433Z,29.99
2022-08-28T17:23:56.153Z,29.51
2022-08-28T17:28:58.717Z,29.73
2022-08-28T17:34:01.597Z,29.65
2022-08-28T17:39:07.457Z,29.50
2022-08-28T17:44:10.136Z,29.50
2022-08-28T17:49:12.603Z,29.47
2022-08-28T17:54:17.347Z,29.31
2022-08-28T17:59:21.267Z,29.19
2022-08-28T18:04:24.613Z,29.05
2022-08-28T18:09:27.150Z,29.01
2022-08-28T18:14:29.575Z,28.95
2022-08-28T18:19:32.034Z,28.94
2022-08-28T18:24:38.402Z,28.87
2022-08-28T18:29:41.017Z,28.62
2022-08-28T18:34:43.579Z,28.57
2022-08-28T18:39:46.075Z,28.43
2022-08-28T18:44:48.609Z,28.35
2022-08-28T18:49:51.135Z,28.40
2022-08-28T18:54:53.740Z,28.00
2022-08-28T19:00:01.544Z,28.16
2022-08-28T19:05:05.494Z,28.10
2022-08-28T19:10:22.897Z,27.84
2022-08-28T19:15:37.864Z,27.89
2022-08-28T19:20:40.629Z,27.88
2022-08-28T19:25:43.178Z,27.70
2022-08-28T19:30:47.804Z,27.67
2022-08-28T19:35:50.716Z,27.62
2022-08-28T19:40:53.268Z,27.50
2022-08-28T19:45:55.758Z,27.39
2022-08-28T19:51:06.289Z,27.28
2022-08-28T19:56:25.435Z,27.20
2022-08-28T20:01:30.464Z,27.14
2022-08-28T20:06:36.576Z,27.17
2022-08-28T20:11:39.091Z,27.01
2022-08-28T20:16:46.742Z,27.11
2022-08-28T20:21:50.597Z,26.70
2022-08-28T20:26:53.826Z,26.88
2022-08-28T20:31:59.766Z,26.98
2022-08-28T20:37:02.613Z,26.79
2022-08-28T20:42:06.754Z,26.60
2022-08-28T20:47:09.270Z,26.55
2022-08-28T20:52:12.772Z,26.33
2022-08-28T20:57:18.320Z,26.41
2022-08-28T21:02:24.390Z,26.43
2022-08-28T21:07:27.366Z,26.41
2022-08-28T21:12:29.884Z,26.46
2022-08-28T21:17:32.363Z,26.44
2022-08-28T21:22:36.041Z,26.41
2022-08-28T21:27:38.914Z,26.27
2022-08-28T21:32:41.382Z,26.20
2022-08-28T21:37:43.913Z,26.05
2022-08-28T21:42:46.352Z,26.06
2022-08-28T21:47:48.773Z,25.94
2022-08-28T21:52:52.509Z,25.89
2022-08-28T21:57:55.002Z,25.31
2022-08-28T22:02:59.475Z,25.51
2022-08-28T22:08:01.985Z,25.41
2022-08-28T22:13:04.674Z,25.46
2022-08-28T22:18:08.321Z,25.52
2022-08-28T22:23:10.750Z,25.16
2022-08-28T22:28:13.263Z,25.22
2022-08-28T22:33:15.816Z,25.12
2022-08-28T22:38:21.174Z,25.11
2022-08-28T22:43:23.683Z,24.96
2022-08-28T22:48:27.308Z,24.87
2022-08-28T22:53:35.147Z,25.12
2022-08-28T22:58:38.007Z,24.91
2022-08-28T23:03:40.686Z,24.73
2022-08-28T23:08:43.738Z,24.81
2022-08-28T23:13:46.186Z,24.63
2022-08-28T23:19:07.449Z,24.58
2022-08-28T23:24:11.430Z,24.58
2022-08-28T23:29:14.886Z,24.89
2022-08-28T23:34:19.757Z,24.81
2022-08-28T23:39:22.197Z,24.76
2022-08-28T23:44:27.083Z,24.46
2022-08-28T23:49:30.029Z,24.70
2022-08-28T23:54:32.477Z,24.68
2022-08-28T23:59:34.997Z,24.42
